createdAt,value
2022-12-26T00:00:39.520Z,52.60
2022-12-26T00:03:06.355Z,50.38
2022-12-26T00:05:36.851Z,51.75
2022-12-26T00:08:04.520Z,52.42
2022-12-26T00:10:31.217Z,46.67
2022-12-26T00:13:37.433Z,51.22
2022-12-26T00:15:44.960Z,51.08
2022-12-26T00:18:11.638Z,49.97
2022-12-26T00:20:38.309Z,50.50
2022-12-26T00:23:04.994Z,50.35
2022-12-26T00:25:34.019Z,47.00
2022-12-26T00:28:01.870Z,49.13
2022-12-26T00:30:28.517Z,50.47
2022-12-26T00:32:55.881Z,48.22
2022-12-26T00:35:24.913Z,51.95
2022-12-26T00:37:51.875Z,54.22
2022-12-26T00:40:18.915Z,53.13
2022-12-26T00:42:45.686Z,50.92
2022-12-26T00:45:12.457Z,52.10
2022-12-26T00:47:39.181Z,53.00
2022-12-26T00:50:13.512Z,51.78
2022-12-26T00:52:42.625Z,50.20
2022-12-26T00:55:10.760Z,50.78
2022-12-26T00:57:37.620Z,54.30
2022-12-26T01:00:05.274Z,52.70
2022-12-26T01:02:32.119Z,53.33
2022-12-26T01:04:59.049Z,53.65
2022-12-26T01:07:26.132Z,51.78
2022-12-26T01:09:55.930Z,50.67
2022-12-26T01:12:23.011Z,51.30
2022-12-26T01:14:49.986Z,51.25
2022-12-26T01:17:16.660Z,49.80
2022-12-26T01:19:43.721Z,52.70
2022-12-26T01:22:13.438Z,46.38
2022-12-26T01:24:40.240Z,49.78
2022-12-26T01:27:06.979Z,47.03
2022-12-26T01:29:38.124Z,48.83
2022-12-26T01:32:05.352Z,53.00
2022-12-26T01:34:32.517Z,44.10
2022-12-26T01:36:59.303Z,50.47
2022-12-26T01:39:28.698Z,52.65
2022-12-26T01:41:57.708Z,52.25
2022-12-26T01:44:58.580Z,51.53
2022-12-26T01:47:52.057Z,51.33
2022-12-26T01:50:24.371Z,51.28
2022-12-26T01:52:51.126Z,47.50
2022-12-26T01:55:21.635Z,49.22
2022-12-26T01:58:01.635Z,44.88
2022-12-26T02:00:29.069Z,51.35
2022-12-26T02:02:56.391Z,44.45
2022-12-26T02:05:29.330Z,48.42
2022-12-26T02:07:56.171Z,45.80
2022-12-26T02:10:29.026Z,42.40
2022-12-26T02:12:55.992Z,41.22
2022-12-26T02:15:23.160Z,42.55
2022-12-26T02:17:49.845Z,38.25
2022-12-26T02:20:16.489Z,40.90
2022-12-26T02:22:52.299Z,36.33
2022-12-26T02:25:34.445Z,42.15
2022-12-26T02:33:26.171Z,42.67
2022-12-26T02:36:07.329Z,43.17
2022-12-26T02:38:53.844Z,44.15
2022-12-26T02:41:51.205Z,39.33
2022-12-26T02:44:42.829Z,43.85
2022-12-26T02:47:20.363Z,43.13
2022-12-26T02:49:49.717Z,43.97
2022-12-26T02:52:21.187Z,41.20
2022-12-26T02:55:12.757Z,42.50
2022-12-26T02:58:08.718Z,38.13
2022-12-26T03:00:40.651Z,43.65
2022-12-26T03:03:22.797Z,42.10
2022-12-26T03:08:36.425Z,37.65
2022-12-26T03:11:05.976Z,40.75
2022-12-26T03:13:38.928Z,38.58
2022-12-26T03:16:11.263Z,37.33
2022-12-26T03:18:57.961Z,38.40
2022-12-26T03:21:35.269Z,37.53
2022-12-26T03:24:05.504Z,37.33
2022-12-26T03:26:40.370Z,38.33
2022-12-26T03:29:20.291Z,40.50
2022-12-26T03:31:47.159Z,38.67
2022-12-26T03:34:13.855Z,37.45
2022-12-26T03:37:05.274Z,38.70
2022-12-26T03:40:02.791Z,37.33
2022-12-26T03:42:38.137Z,35.80
2022-12-26T03:45:30.085Z,38.40
2022-12-26T03:48:22.673Z,38.65
2022-12-26T03:50:57.299Z,35.90
2022-12-26T03:53:40.871Z,35.75
2022-12-26T03:56:22.965Z,37.63
2022-12-26T03:59:00.126Z,39.78
2022-12-26T04:01:30.805Z,34.70
2022-12-26T04:04:00.651Z,36.92
2022-12-26T04:06:40.595Z,37.67
2022-12-26T04:09:15.431Z,31.08
2022-12-26T04:11:44.942Z,32.38
2022-12-26T04:14:44.828Z,34.58
2022-12-26T04:17:36.369Z,36.33
2022-12-26T04:20:50.142Z,37.25
2022-12-26T04:23:27.854Z,36.83
2022-12-26T04:26:09.068Z,35.88
2022-12-26T04:28:36.021Z,36.60
2022-12-26T04:31:21.908Z,36.97
2022-12-26T04:33:58.406Z,37.88
2022-12-26T04:36:36.529Z,34.03
2022-12-26T04:39:06.620Z,36.97
2022-12-26T04:41:35.195Z,37.35
2022-12-26T04:44:06.026Z,38.60
2022-12-26T04:46:38.852Z,38.13
2022-12-26T04:49:08.735Z,37.13
2022-12-26T04:51:44.600Z,38.55
2022-12-26T04:54:11.354Z,38.58
2022-12-26T04:56:38.040Z,37.85
2022-12-26T04:59:06.654Z,39.20
2022-12-26T05:01:33.480Z,40.67
2022-12-26T05:04:00.512Z,41.42
2022-12-26T05:06:30.250Z,38.35
2022-12-26T05:09:04.986Z,40.35
2022-12-26T05:11:33.885Z,39.72
2022-12-26T05:14:01.786Z,39.88
2022-12-26T05:16:30.568Z,39.08
2022-12-26T05:19:00.488Z,39.22
2022-12-26T05:21:27.973Z,38.42
2022-12-26T05:23:54.678Z,39.47
2022-12-26T05:26:29.607Z,39.80
2022-12-26T05:29:00.413Z,39.92
2022-12-26T05:31:32.921Z,39.58
2022-12-26T05:34:04.452Z,37.47
2022-12-26T05:36:42.265Z,39.97
2022-12-26T05:39:12.171Z,40.10
2022-12-26T05:41:38.990Z,37.75
2022-12-26T05:44:09.883Z,33.17
2022-12-26T05:46:44.069Z,37.45
2022-12-26T05:49:11.092Z,38.95
2022-12-26T05:51:37.784Z,38.90
2022-12-26T05:54:07.966Z,37.45
2022-12-26T05:56:34.851Z,37.30
2022-12-26T05:59:02.356Z,39.40
2022-12-26T06:01:30.072Z,40.42
2022-12-26T06:03:59.950Z,37.28
2022-12-26T06:06:29.773Z,37.03
2022-12-26T06:08:57.578Z,32.17
2022-12-26T06:11:25.132Z,37.20
2022-12-26T06:13:52.325Z,37.38
2022-12-26T06:16:19.807Z,36.25
2022-12-26T06:18:50.787Z,38.13
2022-12-26T06:21:19.737Z,38.75
2022-12-26T06:23:52.183Z,33.50
2022-12-26T06:26:21.031Z,39.20
2022-12-26T06:28:47.856Z,36.00
2022-12-26T06:31:22.524Z,37.05
2022-12-26T06:33:55.626Z,37.83
2022-12-26T06:36:24.419Z,36.30
2022-12-26T06:38:52.165Z,37.47
2022-12-26T06:41:21.152Z,35.38
2022-12-26T06:43:48.169Z,38.40
2022-12-26T06:46:18.614Z,39.83
2022-12-26T06:48:45.649Z,37.55
2022-12-26T06:51:21.754Z,40.22
2022-12-26T06:53:52.716Z,38.17
2022-12-26T06:56:22.602Z,37.30
2022-12-26T06:59:00.656Z,37.35
2022-12-26T07:01:30.835Z,37.03
2022-12-26T07:03:58.033Z,37.22
2022-12-26T07:06:33.707Z,35.15
2022-12-26T07:09:03.368Z,34.30
2022-12-26T07:11:34.929Z,32.72
2022-12-26T07:14:03.288Z,33.42
2022-12-26T07:16:30.663Z,31.95
2022-12-26T07:18:58.771Z,34.17
2022-12-26T07:21:26.499Z,31.52
2022-12-26T07:23:59.014Z,31.88
2022-12-26T07:26:26.024Z,34.05
2022-12-26T07:28:57.225Z,32.72
2022-12-26T07:31:25.830Z,33.73
2022-12-26T07:33:54.582Z,34.60
2022-12-26T07:36:21.658Z,34.65
2022-12-26T07:38:48.492Z,30.65
2022-12-26T07:41:15.321Z,34.78
2022-12-26T07:43:50.947Z,28.20
2022-12-26T07:46:21.054Z,32.42
2022-12-26T07:48:48.225Z,32.33
2022-12-26T07:51:14.951Z,29.88
2022-12-26T07:53:41.699Z,28.98
2022-12-26T07:56:08.436Z,32.72
2022-12-26T07:58:35.068Z,28.17
2022-12-26T08:01:04.965Z,30.48
2022-12-26T08:03:31.953Z,26.88
2022-12-26T08:05:59.037Z,28.30
2022-12-26T08:08:26.117Z,24.60
2022-12-26T08:11:02.410Z,24.20
2022-12-26T08:13:32.124Z,23.63
2022-12-26T08:16:01.645Z,22.30
2022-12-26T08:18:30.894Z,23.85
2022-12-26T08:21:02.231Z,27.45
2022-12-26T08:23:32.691Z,22.50
2022-12-26T08:26:04.351Z,25.90
2022-12-26T08:28:32.432Z,25.25
2022-12-26T08:31:07.174Z,25.80
2022-12-26T08:33:34.095Z,25.38
2022-12-26T08:36:05.996Z,23.65
2022-12-26T08:38:36.115Z,23.58
2022-12-26T08:41:02.995Z,23.90
2022-12-26T08:43:52.796Z,26.17
2022-12-26T08:46:21.896Z,26.48
2022-12-26T08:48:49.792Z,23.77
2022-12-26T08:51:25.162Z,25.05
2022-12-26T08:53:52.927Z,26.85
2022-12-26T08:56:25.260Z,23.20
2022-12-26T08:58:52.643Z,23.02
2022-12-26T09:01:30.195Z,26.45
2022-12-26T09:04:01.384Z,22.58
2022-12-26T09:06:34.430Z,26.05
2022-12-26T09:09:01.870Z,22.60
2022-12-26T09:11:30.110Z,26.38
2022-12-26T09:14:06.679Z,26.10
2022-12-26T09:16:45.704Z,27.92
2022-12-26T09:19:17.009Z,27.63
2022-12-26T09:21:44.896Z,27.65
2022-12-26T09:24:14.155Z,27.50
2022-12-26T09:26:43.013Z,28.02
2022-12-26T09:29:16.463Z,27.80
2022-12-26T09:31:43.141Z,29.73
2022-12-26T09:34:12.875Z,30.02
2022-12-26T09:36:39.960Z,28.08
2022-12-26T09:39:10.912Z,29.10
2022-12-26T09:42:16.205Z,29.60
2022-12-26T09:45:11.754Z,28.17
2022-12-26T09:47:49.270Z,27.40
2022-12-26T09:50:42.875Z,29.25
2022-12-26T09:53:24.745Z,29.95
2022-12-26T09:56:05.830Z,31.77
2022-12-26T09:58:44.212Z,31.10
2022-12-26T10:01:34.414Z,31.20
2022-12-26T10:04:09.614Z,27.50
2022-12-26T10:06:41.703Z,29.98
2022-12-26T10:09:14.575Z,28.75
2022-12-26T10:12:06.242Z,27.95
2022-12-26T10:15:04.716Z,29.48
2022-12-26T10:17:46.899Z,27.75
2022-12-26T10:23:16.542Z,28.40
2022-12-26T10:25:48.528Z,28.45
2022-12-26T10:30:56.939Z,29.13
2022-12-26T10:33:54.187Z,28.75
2022-12-26T10:36:33.896Z,33.20
2022-12-26T10:39:14.555Z,31.35
2022-12-26T10:41:48.772Z,22.50
2022-12-26T10:44:20.302Z,31.27
2022-12-26T10:47:25.219Z,43.00
2022-12-26T10:49:56.073Z,36.47
2022-12-26T10:52:34.175Z,35.47
2022-12-26T10:55:28.729Z,39.55
2022-12-26T10:57:57.376Z,40.22
2022-12-26T11:00:29.026Z,36.72
2022-12-26T11:03:15.459Z,40.58
2022-12-26T11:06:08.404Z,42.38
2022-12-26T11:08:46.839Z,42.17
2022-12-26T11:11:22.877Z,43.60
2022-12-26T11:14:02.153Z,41.60
2022-12-26T11:16:33.989Z,42.00
2022-12-26T11:19:01.046Z,41.50
2022-12-26T11:21:33.744Z,45.72
2022-12-26T11:24:09.688Z,45.15
2022-12-26T11:26:37.776Z,34.10
2022-12-26T11:29:27.388Z,42.90
2022-12-26T11:32:00.743Z,40.80
2022-12-26T11:34:41.912Z,44.63
2022-12-26T11:37:42.679Z,45.42
2022-12-26T11:40:22.446Z,44.60
2022-12-26T11:42:57.562Z,46.95
2022-12-26T11:45:37.042Z,45.45
2022-12-26T11:48:18.962Z,47.60
2022-12-26T11:50:46.563Z,48.65
2022-12-26T11:53:17.567Z,49.58
2022-12-26T11:55:45.392Z,47.10
2022-12-26T11:58:21.737Z,50.60
2022-12-26T12:00:51.518Z,50.60
2022-12-26T12:03:45.308Z,51.03
2022-12-26T12:06:35.840Z,50.92
2022-12-26T12:09:30.634Z,51.15
2022-12-26T12:12:15.711Z,49.30
2022-12-26T12:15:24.169Z,50.30
2022-12-26T12:18:10.711Z,51.88
2022-12-26T12:21:02.299Z,51.08
2022-12-26T12:23:59.772Z,49.72
2022-12-26T12:26:39.977Z,46.97
2022-12-26T12:29:26.208Z,46.97
2022-12-26T12:32:05.184Z,49.42
2022-12-26T12:34:50.382Z,48.63
2022-12-26T12:37:38.697Z,51.00
2022-12-26T12:40:44.197Z,48.80
2022-12-26T12:43:31.523Z,48.47
2022-12-26T12:46:16.433Z,49.65
2022-12-26T12:49:04.469Z,49.60
2022-12-26T12:51:43.102Z,47.72
2022-12-26T12:54:42.163Z,49.70
2022-12-26T12:57:27.487Z,46.88
2022-12-26T13:00:15.077Z,47.17
2022-12-26T13:03:10.937Z,47.47
2022-12-26T13:06:11.449Z,49.83
2022-12-26T13:09:02.909Z,50.35
2022-12-26T13:11:36.689Z,48.63
2022-12-26T13:14:09.271Z,54.38
2022-12-26T13:16:42.804Z,50.00
2022-12-26T13:19:25.971Z,46.05
2022-12-26T13:22:00.846Z,50.15
2022-12-26T13:24:39.344Z,49.95
2022-12-26T13:27:27.765Z,50.58
2022-12-26T13:29:54.500Z,47.90
2022-12-26T13:32:29.067Z,50.03
2022-12-26T13:34:58.356Z,49.50
2022-12-26T13:37:40.306Z,49.35
2022-12-26T13:40:29.988Z,49.33
2022-12-26T13:43:17.159Z,50.65
2022-12-26T13:45:48.524Z,50.03
2022-12-26T13:48:18.192Z,48.30
2022-12-26T13:51:02.193Z,51.20
2022-12-26T13:53:33.942Z,49.70
2022-12-26T13:56:33.402Z,48.45
2022-12-26T13:59:29.783Z,49.33
2022-12-26T14:03:07.615Z,49.00
2022-12-26T14:05:28.969Z,48.88
2022-12-26T14:08:07.113Z,49.25
2022-12-26T14:10:58.366Z,49.70
2022-12-26T14:13:57.570Z,49.78
2022-12-26T14:16:49.395Z,51.22
2022-12-26T14:19:49.597Z,48.90
2022-12-26T14:22:36.496Z,51.83
2022-12-26T14:25:39.255Z,51.95
2022-12-26T14:28:29.352Z,51.45
2022-12-26T14:30:58.923Z,51.80
2022-12-26T14:34:13.865Z,50.20
2022-12-26T14:36:52.211Z,51.00
2022-12-26T14:39:43.505Z,50.22
2022-12-26T14:42:20.413Z,49.45
2022-12-26T14:44:47.135Z,47.85
2022-12-26T14:47:51.577Z,49.53
2022-12-26T14:50:37.825Z,50.70
2022-12-26T14:53:25.490Z,43.63
2022-12-26T14:56:08.746Z,50.83
2022-12-26T14:58:46.233Z,46.75
2022-12-26T15:01:13.001Z,48.97
2022-12-26T15:03:57.053Z,50.00
2022-12-26T15:06:49.352Z,47.78
2022-12-26T15:12:00.585Z,50.35
2022-12-26T15:14:32.962Z,46.28
2022-12-26T15:17:05.148Z,49.15
2022-12-26T15:19:43.563Z,51.17
2022-12-26T15:22:31.118Z,50.30
2022-12-26T15:25:36.329Z,51.95
2022-12-26T15:28:41.361Z,48.95
2022-12-26T15:31:37.035Z,51.70
2022-12-26T15:34:26.006Z,52.47
2022-12-26T15:37:04.850Z,52.08
2022-12-26T15:39:50.301Z,52.28
2022-12-26T15:42:42.466Z,53.05
2022-12-26T15:45:46.301Z,53.05
2022-12-26T15:48:37.607Z,53.85
2022-12-26T15:51:19.810Z,56.60
2022-12-26T15:56:41.643Z,54.13
2022-12-26T15:59:30.100Z,55.65
2022-12-26T16:02:26.603Z,55.50
2022-12-26T16:05:08.607Z,56.50
2022-12-26T16:08:01.147Z,58.33
2022-12-26T16:10:33.083Z,59.47
2022-12-26T16:13:15.528Z,60.13
2022-12-26T16:15:48.248Z,57.10
2022-12-26T16:20:54.985Z,52.08
2022-12-26T16:23:27.288Z,56.25
2022-12-26T16:25:56.975Z,58.35
2022-12-26T16:28:31.419Z,58.20
2022-12-26T16:30:58.972Z,57.92
2022-12-26T16:33:29.563Z,60.08
2022-12-26T16:36:00.822Z,60.45
2022-12-26T16:38:31.582Z,56.38
2022-12-26T16:40:58.177Z,56.08
2022-12-26T16:43:31.256Z,54.92
2022-12-26T16:46:04.671Z,56.20
2022-12-26T16:48:33.838Z,52.90
2022-12-26T16:51:08.405Z,55.42
2022-12-26T16:53:38.039Z,54.78
2022-12-26T16:56:25.925Z,55.47
2022-12-26T16:59:04.580Z,55.30
2022-12-26T17:01:38.122Z,54.80
2022-12-26T17:04:12.661Z,54.80
2022-12-26T17:06:46.112Z,57.28
2022-12-26T17:09:17.083Z,55.65
2022-12-26T17:11:56.914Z,56.03
2022-12-26T17:14:34.753Z,54.22
2022-12-26T17:17:05.268Z,54.88
2022-12-26T17:19:39.408Z,56.50
2022-12-26T17:22:15.359Z,53.50
2022-12-26T17:24:43.145Z,57.70
2022-12-26T17:27:19.121Z,55.05
2022-12-26T17:29:52.113Z,53.28
2022-12-26T17:32:43.281Z,53.90
2022-12-26T17:35:19.339Z,53.55
2022-12-26T17:37:50.318Z,54.90
2022-12-26T17:40:16.965Z,55.95
2022-12-26T17:43:33.571Z,56.72
2022-12-26T17:46:06.589Z,54.88
2022-12-26T17:48:34.482Z,57.65
2022-12-26T17:51:12.989Z,53.25
2022-12-26T17:53:47.737Z,56.17
2022-12-26T17:56:19.705Z,55.88
2022-12-26T17:58:46.547Z,55.53
2022-12-26T18:01:18.988Z,57.20
2022-12-26T18:03:50.332Z,57.30
2022-12-26T18:06:17.532Z,59.28
2022-12-26T18:08:47.120Z,56.20
2022-12-26T18:11:16.796Z,57.47
2022-12-26T18:13:43.480Z,59.30
2022-12-26T18:16:16.689Z,56.00
2022-12-26T18:18:50.500Z,54.92
2022-12-26T18:21:17.873Z,44.50
2022-12-26T18:23:45.643Z,55.25
2022-12-26T18:26:27.568Z,56.92
2022-12-26T18:28:54.754Z,57.20
2022-12-26T18:31:21.893Z,54.33
2022-12-26T18:33:48.924Z,59.60
2022-12-26T18:36:17.684Z,56.25
2022-12-26T18:38:50.224Z,55.15
2022-12-26T18:41:18.939Z,53.45
2022-12-26T18:43:49.898Z,53.78
2022-12-26T18:46:28.096Z,52.22
2022-12-26T18:48:57.716Z,52.45
2022-12-26T18:51:25.424Z,51.85
2022-12-26T18:53:54.942Z,51.45
2022-12-26T18:56:22.851Z,53.67
2022-12-26T18:58:57.789Z,52.85
2022-12-26T19:01:26.619Z,56.28
2022-12-26T19:03:57.791Z,55.08
2022-12-26T19:06:30.143Z,54.47
2022-12-26T19:09:04.688Z,55.78
2022-12-26T19:11:31.872Z,59.55
2022-12-26T19:13:58.802Z,57.22
2022-12-26T19:16:27.372Z,56.83
2022-12-26T19:18:54.424Z,54.53
2022-12-26T19:21:21.156Z,55.25
2022-12-26T19:23:51.743Z,55.85
2022-12-26T19:26:22.159Z,52.05
2022-12-26T19:28:55.390Z,53.00
2022-12-26T19:31:28.843Z,55.58
2022-12-26T19:34:02.916Z,53.03
2022-12-26T19:36:30.818Z,54.65
2022-12-26T19:38:59.205Z,58.85
2022-12-26T19:41:28.870Z,59.85
2022-12-26T19:43:59.931Z,60.17
2022-12-26T19:46:30.152Z,64.15
2022-12-26T19:48:56.863Z,61.78
2022-12-26T19:51:23.678Z,55.20
2022-12-26T19:53:50.489Z,59.30
2022-12-26T19:56:24.759Z,56.03
2022-12-26T19:58:56.469Z,56.95
2022-12-26T20:03:57.093Z,57.72
2022-12-26T20:06:27.574Z,59.50
2022-12-26T20:08:58.190Z,60.20
2022-12-26T20:11:30.115Z,65.18
2022-12-26T20:14:00.120Z,63.95
2022-12-26T20:17:03.861Z,57.72
2022-12-26T20:19:17.011Z,61.28
2022-12-26T20:21:47.179Z,63.75
2022-12-26T20:24:14.661Z,62.67
2022-12-26T20:26:50.087Z,64.35
2022-12-26T20:29:17.875Z,61.40
2022-12-26T20:31:46.054Z,59.47
2022-12-26T20:34:15.687Z,58.55
2022-12-26T20:36:43.390Z,58.40
2022-12-26T20:39:16.776Z,55.65
2022-12-26T20:41:44.306Z,57.83
2022-12-26T20:44:14.176Z,58.08
2022-12-26T20:46:43.204Z,56.22
2022-12-26T20:49:13.741Z,56.17
2022-12-26T20:51:42.963Z,53.47
2022-12-26T20:54:12.388Z,54.08
2022-12-26T20:56:40.390Z,53.53
2022-12-26T20:59:08.030Z,56.45
2022-12-26T21:01:35.853Z,57.10
2022-12-26T21:04:04.924Z,53.33
2022-12-26T21:06:40.959Z,52.85
2022-12-26T21:09:07.789Z,53.50
2022-12-26T21:11:37.625Z,56.20
2022-12-26T21:14:08.298Z,54.05
2022-12-26T21:16:43.325Z,55.50
2022-12-26T21:19:15.672Z,56.40
2022-12-26T21:21:45.904Z,56.08
2022-12-26T21:24:18.293Z,55.70
2022-12-26T21:26:45.957Z,54.83
2022-12-26T21:29:27.432Z,57.00
2022-12-26T21:32:01.002Z,56.13
2022-12-26T21:34:30.865Z,56.63
2022-12-26T21:36:58.272Z,53.40
2022-12-26T21:39:26.066Z,57.03
2022-12-26T21:41:53.215Z,54.50
2022-12-26T21:44:21.403Z,54.15
2022-12-26T21:46:51.211Z,54.47
2022-12-26T21:49:20.524Z,51.55
2022-12-26T21:51:48.844Z,54.80
2022-12-26T21:54:15.964Z,51.30
2022-12-26T21:56:43.909Z,54.08
2022-12-26T21:59:12.058Z,52.30
2022-12-26T22:01:38.929Z,52.78
2022-12-26T22:04:05.646Z,54.60
2022-12-26T22:06:32.388Z,52.33
2022-12-26T22:09:05.959Z,54.97
2022-12-26T22:11:32.922Z,50.25
2022-12-26T22:13:59.682Z,49.10
2022-12-26T22:16:26.586Z,50.85
2022-12-26T22:18:53.255Z,54.13
2022-12-26T22:21:22.084Z,51.22
2022-12-26T22:23:53.383Z,45.13
2022-12-26T22:26:23.815Z,52.90
2022-12-26T22:28:54.042Z,53.08
2022-12-26T22:31:35.321Z,51.22
2022-12-26T22:34:07.925Z,50.40
2022-12-26T22:36:37.511Z,53.15
2022-12-26T22:39:04.455Z,51.95
2022-12-26T22:41:35.039Z,50.35
2022-12-26T22:44:01.769Z,51.63
2022-12-26T22:46:28.539Z,55.60
2022-12-26T22:48:55.358Z,57.88
2022-12-26T22:51:24.724Z,58.63
2022-12-26T22:54:00.848Z,60.97
2022-12-26T22:56:31.315Z,57.78
2022-12-26T22:58:59.499Z,61.13
2022-12-26T23:01:28.104Z,67.22
2022-12-26T23:03:55.124Z,70.85
2022-12-26T23:06:28.345Z,71.45
2022-12-26T23:08:58.427Z,69.57
2022-12-26T23:11:34.117Z,73.70
2022-12-26T23:14:03.103Z,72.53
2022-12-26T23:16:39.004Z,70.18
2022-12-26T23:19:25.901Z,72.20
2022-12-26T23:21:55.999Z,71.18
2022-12-26T23:24:26.413Z,73.10
2022-12-26T23:27:12.063Z,66.60
2022-12-26T23:29:39.510Z,70.32
2022-12-26T23:32:10.076Z,70.55
2022-12-26T23:34:37.110Z,69.63
2022-12-26T23:37:04.177Z,70.78
2022-12-26T23:39:31.147Z,68.70
2022-12-26T23:42:00.587Z,71.03
2022-12-26T23:44:30.399Z,67.55
2022-12-26T23:47:00.965Z,73.25
2022-12-26T23:49:28.261Z,72.50
2022-12-26T23:51:54.980Z,70.90
2022-12-26T23:54:21.748Z,72.38
2022-12-26T23:56:48.411Z,71.47
2022-12-26T23:59:15.448Z,73.28
